Time;durP1;ratioP1;P1;durP2;ratioP2;P2;SDS_P1;SDS_P2;PMS_P1;PMS_P2;Temp;Humidity;BMP_temperature;BMP_pressure;BME280_temperature;BME280_humidity;BME280_pressure;Samples;Min_cycle;Max_cycle;Signal;HPM_P1;HPM_P2
2021/08/02 03:20:06;;;;;;;;;;;;;;;5.78;94.83;99371.09;5332431;22;19931;-89
2021/08/02 03:22:36;;;;;;;;;;;;;;;5.87;94.61;99369.94;5080725;28;19920;-89
2021/08/02 03:25:09;;;;;;;;;;;;;;;5.75;95.55;99365.91;5081096;28;19924;-89
2021/08/02 03:27:47;;;;;;;;;;;;;;;5.73;95.83;99367.75;5080731;28;20283;-89
2021/08/02 03:30:13;;;;;;;;;;;;;;;6.02;96.37;99363.41;5063441;28;20051;-91
2021/08/02 03:32:41;;;;;;;;;;;;;;;6.21;96.34;99369.78;5063548;28;19959;-90
2021/08/02 03:35:08;;;;;;;;;;;;;;;5.93;99.17;99375.00;5065738;28;19913;-92
2021/08/02 03:37:34;;;;;;;;;;;;;;;6.31;98.99;99375.63;5065391;28;20023;-90
2021/08/02 03:40:01;;;;;;;;;;;;;;;6.13;98.41;99377.91;5065762;28;19964;-89
2021/08/02 03:42:28;;;;;;;;;;;;;;;6.27;98.32;99380.13;5081141;28;19916;-89
2021/08/02 03:44:53;;;;;;;;;;;;;;;6.35;100.00;99380.75;5082553;28;20019;-90
2021/08/02 03:47:19;;;;;;;;;;;;;;;6.81;100.00;99377.50;5083071;28;19959;-90
2021/08/02 03:49:45;;;;;;;;;;;;;;;6.98;100.00;99379.56;5080818;28;19921;-91
2021/08/02 03:52:10;;;;;;;;;;;;;;;6.98;100.00;99377.78;5063444;28;19927;-90
2021/08/02 03:54:36;;;;;;;;;;;;;;;6.89;100.00;99378.09;5063529;28;20096;-89
2021/08/02 03:57:02;;;;;;;;;;;;;;;6.65;100.00;99374.50;5062639;28;19912;-91
2021/08/02 03:59:27;;;;;;;;;;;;;;;6.73;100.00;99376.00;5062192;28;20279;-88
2021/08/02 04:01:53;;;;;;;;;;;;;;;6.92;100.00;99383.25;5081665;28;19950;-91
2021/08/02 04:04:18;;;;;;;;;;;;;;;7.07;100.00;99379.25;5086006;28;19943;-90
2021/08/02 04:06:44;;;;;;;;;;;;;;;7.13;100.00;99386.06;5067940;28;19925;-92
2021/08/02 04:09:10;;;;;;;;;;;;;;;7.07;100.00;99382.72;5069582;28;19921;-91
2021/08/02 04:11:36;;;;;;;;;;;;;;;6.83;100.00;99380.94;5070740;28;19977;-90
2021/08/02 04:14:02;;;;;;;;;;;;;;;6.69;100.00;99381.41;5085508;28;19927;-91
2021/08/02 04:16:27;;;;;;;;;;;;;;;6.68;100.00;99383.16;5084570;28;19916;-91
2021/08/02 04:18:53;;;;;;;;;;;;;;;6.56;100.00;99394.13;5065091;28;19924;-90
2021/08/02 04:21:18;;;;;;;;;;;;;;;6.69;100.00;99395.44;5066563;28;19943;-89
2021/08/02 04:23:44;;;;;;;;;;;;;;;6.61;100.00;99397.47;5061005;28;19921;-90
2021/08/02 04:26:12;;;;;;;;;;;;;;;6.57;100.00;99397.59;5061277;28;20307;-90
2021/08/02 04:28:38;;;;;;;;;;;;;;;6.49;100.00;99397.84;5060841;28;20280;-90
2021/08/02 04:31:04;;;;;;;;;;;;;;;6.48;100.00;99396.16;5061947;28;19921;-90
2021/08/02 04:33:29;;;;;;;;;;;;;;;6.40;100.00;99395.50;5044274;28;20001;-90
2021/08/02 04:35:54;;;;;;;;;;;;;;;6.36;100.00;99398.22;5063455;28;19920;-91
2021/08/02 04:38:20;;;;;;;;;;;;;;;6.51;100.00;99403.91;5048664;28;19990;-91
2021/08/02 04:40:48;;;;;;;;;;;;;;;6.28;100.00;99402.03;5060604;28;19925;-92
2021/08/02 04:43:13;;;;;;;;;;;;;;;6.39;100.00;99393.81;5047335;28;20165;-93
2021/08/02 07:59:33;;;;;;;;;;;;;;;5.92;100.00;99466.19;5051180;28;19925;-93
2021/08/02 08:01:59;;;;;;;;;;;;;;;5.81;99.01;99471.75;5067793;28;19931;-91
2021/08/02 08:04:25;;;;;;;;;;;;;;;5.78;99.66;99476.25;5061881;28;20305;-92
2021/08/02 08:06:50;;;;;;;;;;;;;;;5.94;99.35;99464.38;5060895;28;19921;-91
2021/08/02 08:09:16;;;;;;;;;;;;;;;6.04;99.14;99466.78;5061516;28;19917;-90
2021/08/02 08:11:41;;;;;;;;;;;;;;;5.70;99.62;99468.56;5062378;28;19925;-91
2021/08/02 08:14:06;;;;;;;;;;;;;;;5.67;99.90;99475.69;5062614;28;19963;-93
2021/08/02 08:16:32;;;;;;;;;;;;;;;5.80;100.00;99474.44;5062686;28;19920;-91
2021/08/02 08:18:57;;;;;;;;;;;;;;;5.73;99.48;99475.53;5062553;28;19940;-92
2021/08/02 08:21:23;;;;;;;;;;;;;;;5.71;100.00;99472.94;5062315;28;19917;-91
2021/08/02 08:23:48;;;;;;;;;;;;;;;5.72;99.52;99469.38;5062277;28;19921;-90
2021/08/02 08:26:13;;;;;;;;;;;;;;;5.88;99.29;99472.44;5062466;28;19924;-92
2021/08/02 08:28:39;;;;;;;;;;;;;;;5.85;100.00;99469.91;5062870;28;19967;-90
2021/08/02 08:31:05;;;;;;;;;;;;;;;5.79;100.00;99476.22;5062573;28;19928;-92
2021/08/02 08:33:31;;;;;;;;;;;;;;;5.69;100.00;99471.25;5062248;28;19932;-89
2021/08/02 08:35:56;;;;;;;;;;;;;;;5.79;99.57;99473.56;5062238;28;19921;-91
2021/08/02 08:38:22;;;;;;;;;;;;;;;5.79;99.42;99472.69;5062126;28;19948;-89
2021/08/02 08:40:48;;;;;;;;;;;;;;;5.94;98.99;99463.53;5061681;28;19932;-90
2021/08/02 08:43:15;;;;;;;;;;;;;;;6.06;99.18;99471.06;5062174;28;19908;-93
2021/08/02 08:45:40;;;;;;;;;;;;;;;5.82;99.57;99476.13;5059601;28;19921;-91
2021/08/02 08:48:06;;;;;;;;;;;;;;;5.89;100.00;99468.91;5059046;28;20317;-91
2021/08/02 08:50:32;;;;;;;;;;;;;;;5.87;99.48;99460.22;5058731;28;20474;-92
2021/08/02 08:52:57;;;;;;;;;;;;;;;5.94;99.64;99463.53;5064544;28;19968;-90
2021/08/02 08:55:23;;;;;;;;;;;;;;;5.90;99.73;99460.09;5059009;28;19921;-89
2021/08/02 08:57:49;;;;;;;;;;;;;;;6.15;100.00;99464.69;5058887;28;19925;-89
2021/08/02 09:00:18;;;;;;;;;;;;;;;5.90;99.38;99459.25;5058736;28;20007;-88
2021/08/02 09:02:44;;;;;;;;;;;;;;;5.82;99.25;99465.59;5041794;28;19921;-91
2021/08/02 09:05:14;;;;;;;;;;;;;;;7.80;100.00;99460.09;5040115;28;19921;-90
2021/08/02 09:07:41;;;;;;;;;;;;;;;9.20;100.00;99445.81;5041381;28;20000;-91
2021/08/02 09:10:08;;;;;;;;;;;;;;;7.38;100.00;99446.69;5038987;28;20020;-91
2021/08/02 09:12:33;;;;;;;;;;;;;;;6.92;100.00;99454.38;5038259;28;19925;-90
2021/08/02 09:15:00;;;;;;;;;;;;;;;6.51;100.00;99456.56;5037610;28;19921;-90
2021/08/02 09:17:29;;;;;;;;;;;;;;;6.45;100.00;99454.16;5037555;28;19921;-90
2021/08/02 09:19:55;;;;;;;;;;;;;;;6.33;100.00;99452.75;5036556;28;20053;-90
2021/08/02 09:22:34;;;;;;;;;;;;;;;6.27;100.00;99460.81;5037615;28;20378;-92
2021/08/02 09:25:03;;;;;;;;;;;;;;;6.17;100.00;99460.22;5036874;28;19921;-90
2021/08/02 09:27:28;;;;;;;;;;;;;;;6.10;100.00;99471.88;5054001;28;19920;-92
2021/08/02 09:29:54;;;;;;;;;;;;;;;6.16;100.00;99461.16;5058326;28;19921;-91
2021/08/02 09:32:19;;;;;;;;;;;;;;;6.16;100.00;99462.00;5059488;28;19939;-90
2021/08/02 09:34:46;;;;;;;;;;;;;;;6.06;100.00;99462.31;5058289;28;19921;-91
2021/08/02 09:37:24;;;;;;;;;;;;;;;6.20;100.00;99460.16;5045515;28;20280;-92
2021/08/02 09:39:49;;;;;;;;;;;;;;;6.11;100.00;99455.16;5038208;28;19936;-92
2021/08/02 09:42:14;;;;;;;;;;;;;;;6.17;100.00;99457.59;5057103;28;19924;-92
2021/08/02 09:44:40;;;;;;;;;;;;;;;6.20;100.00;99447.00;5056851;28;20019;-92
2021/08/02 09:47:07;;;;;;;;;;;;;;;6.06;100.00;99452.66;5056599;28;19935;-91
2021/08/02 09:49:46;;;;;;;;;;;;;;;5.99;100.00;99443.25;5056704;28;19928;-92
2021/08/02 09:52:12;;;;;;;;;;;;;;;5.99;100.00;99449.34;5057555;28;19920;-92
2021/08/02 09:54:37;;;;;;;;;;;;;;;6.01;100.00;99444.03;5057730;28;19940;-93
2021/08/02 09:57:03;;;;;;;;;;;;;;;6.09;100.00;99447.31;5056735;28;19936;-91
2021/08/02 09:59:29;;;;;;;;;;;;;;;5.93;100.00;99446.88;5055735;28;19935;-89
2021/08/02 10:01:55;;;;;;;;;;;;;;;6.10;100.00;99450.81;5058105;28;20327;-90
2021/08/02 10:04:21;;;;;;;;;;;;;;;6.02;100.00;99447.56;5057642;28;19971;-91
2021/08/02 10:06:47;;;;;;;;;;;;;;;6.07;100.00;99446.50;5057613;28;19924;-90
2021/08/02 10:09:13;;;;;;;;;;;;;;;5.98;100.00;99446.75;5057837;28;19925;-91
2021/08/02 10:11:38;;;;;;;;;;;;;;;6.04;100.00;99453.63;5057488;28;19921;-92
2021/08/02 10:14:04;;;;;;;;;;;;;;;5.96;100.00;99457.31;5056866;28;19931;-90
2021/08/02 10:16:30;;;;;;;;;;;;;;;6.00;100.00;99458.97;5057310;28;19920;-92
2021/08/02 10:19:22;;;;;;;;;;;;;;;5.94;100.00;99459.13;5057930;28;19967;-91
2021/08/02 10:21:48;;;;;;;;;;;;;;;5.99;100.00;99459.88;5053341;28;20258;-92
2021/08/02 10:24:16;;;;;;;;;;;;;;;5.95;100.00;99455.59;5057673;28;19927;-91
2021/08/02 10:26:56;;;;;;;;;;;;;;;5.96;100.00;99459.06;5049066;28;19921;-90
2021/08/02 10:29:21;;;;;;;;;;;;;;;5.93;100.00;99453.91;5057491;28;20292;-92
2021/08/02 10:31:51;;;;;;;;;;;;;;;5.90;100.00;99449.59;5057687;28;19921;-91
2021/08/02 10:34:20;;;;;;;;;;;;;;;5.95;100.00;99455.59;5057150;28;19921;-92
2021/08/02 10:36:59;;;;;;;;;;;;;;;5.89;100.00;99449.63;5049375;28;19924;-92
2021/08/02 10:39:26;;;;;;;;;;;;;;;5.90;100.00;99444.31;5048199;28;20223;-91
2021/08/02 10:42:03;;;;;;;;;;;;;;;5.97;100.00;99445.91;5064177;28;19928;-90
2021/08/02 10:44:28;;;;;;;;;;;;;;;5.96;100.00;99444.19;5065280;28;19931;-92
2021/08/02 10:47:01;;;;;;;;;;;;;;;5.92;100.00;99442.53;5064749;28;19921;-91
2021/08/02 10:49:26;;;;;;;;;;;;;;;5.94;100.00;99432.81;5064626;28;20011;-90
2021/08/02 10:51:54;;;;;;;;;;;;;;;5.95;100.00;99433.66;5063526;28;19967;-91
2021/08/02 10:54:20;;;;;;;;;;;;;;;6.03;100.00;99436.13;5064024;28;19943;-90
2021/08/02 10:56:48;;;;;;;;;;;;;;;5.94;100.00;99437.22;5059303;28;19921;-90
2021/08/02 10:59:21;;;;;;;;;;;;;;;6.04;100.00;99440.47;5063494;28;19933;-90
2021/08/02 11:01:47;;;;;;;;;;;;;;;5.96;100.00;99443.28;5062844;28;19928;-90
2021/08/02 11:04:13;;;;;;;;;;;;;;;6.04;100.00;99446.59;5061499;28;19932;-91
2021/08/02 11:06:39;;;;;;;;;;;;;;;6.09;100.00;99442.03;5062964;28;19920;-90
2021/08/02 11:09:06;;;;;;;;;;;;;;;6.23;100.00;99440.78;5066427;28;19921;-90
2021/08/02 11:11:37;;;;;;;;;;;;;;;5.98;100.00;99446.75;5065624;28;19920;-90
2021/08/02 11:14:06;;;;;;;;;;;;;;;5.99;100.00;99453.75;5064690;28;19948;-89
2021/08/02 11:16:39;;;;;;;;;;;;;;;6.07;100.00;99450.91;5063096;28;19928;-90
2021/08/02 11:19:15;;;;;;;;;;;;;;;6.22;100.00;99450.44;5063167;28;19939;-90
2021/08/02 11:21:40;;;;;;;;;;;;;;;6.18;100.00;99454.06;5065802;28;19920;-91
2021/08/02 11:24:10;;;;;;;;;;;;;;;6.31;100.00;99439.63;5062540;28;19978;-93
2021/08/02 11:26:55;;;;;;;;;;;;;;;6.26;100.00;99449.44;5061830;28;19924;-89
2021/08/02 11:29:21;;;;;;;;;;;;;;;6.25;100.00;99466.13;5058119;28;19929;-90
2021/08/02 11:31:56;;;;;;;;;;;;;;;6.32;100.00;99462.41;5063162;28;19928;-90
2021/08/02 11:34:21;;;;;;;;;;;;;;;6.30;100.00;99469.50;5045035;28;19921;-90
2021/08/02 11:36:55;;;;;;;;;;;;;;;6.38;100.00;99466.59;5042382;28;19932;-91
2021/08/02 11:39:21;;;;;;;;;;;;;;;6.39;100.00;99467.50;5041181;28;19936;-91
2021/08/02 11:41:46;;;;;;;;;;;;;;;6.35;100.00;99464.06;5039896;28;20299;-91
2021/08/02 11:44:11;;;;;;;;;;;;;;;6.29;100.00;99456.38;5040321;28;19937;-91
2021/08/02 11:46:37;;;;;;;;;;;;;;;6.25;100.00;99455.59;5039824;28;19978;-90
2021/08/02 11:49:08;;;;;;;;;;;;;;;6.34;100.00;99439.53;5052063;28;19921;-92
2021/08/02 11:51:33;;;;;;;;;;;;;;;6.28;100.00;99446.75;5059332;28;19946;-90
2021/08/02 11:54:01;;;;;;;;;;;;;;;6.28;100.00;99449.41;5054772;28;19998;-90
2021/08/02 11:56:30;;;;;;;;;;;;;;;6.40;100.00;99440.25;5058924;28;20314;-92
2021/08/02 11:58:56;;;;;;;;;;;;;;;6.23;100.00;99439.00;5059554;28;19975;-90
2021/08/02 12:01:21;;;;;;;;;;;;;;;6.38;100.00;99429.75;5060937;28;19921;-92
2021/08/02 12:03:47;;;;;;;;;;;;;;;6.26;100.00;99425.75;5061677;28;19921;-91
2021/08/02 12:06:15;;;;;;;;;;;;;;;6.20;100.00;99422.47;5061035;28;19925;-91
2021/08/02 12:08:50;;;;;;;;;;;;;;;6.26;100.00;99423.13;5059491;28;20292;-92
2021/08/02 12:11:17;;;;;;;;;;;;;;;6.26;100.00;99430.16;5054953;28;20250;-92
2021/08/02 12:13:44;;;;;;;;;;;;;;;6.27;100.00;99442.41;5059235;28;19924;-91
2021/08/02 12:16:23;;;;;;;;;;;;;;;6.27;100.00;99442.41;5059985;28;20022;-89
2021/08/02 12:18:50;;;;;;;;;;;;;;;6.22;100.00;99439.06;5059227;28;19932;-90
2021/08/02 12:21:25;;;;;;;;;;;;;;;6.21;100.00;99424.16;5059285;28;19928;-90
2021/08/02 12:24:01;;;;;;;;;;;;;;;6.17;100.00;99432.19;5059553;28;19931;-90
2021/08/02 12:26:30;;;;;;;;;;;;;;;6.18;100.00;99422.50;5060234;28;19948;-89
2021/08/02 12:28:55;;;;;;;;;;;;;;;6.19;100.00;99424.25;5060088;28;19921;-91
2021/08/02 12:31:23;;;;;;;;;;;;;;;6.18;100.00;99427.78;5056860;28;20210;-90
2021/08/02 12:33:50;;;;;;;;;;;;;;;6.16;100.00;99434.84;5058434;28;19947;-90
2021/08/02 12:36:18;;;;;;;;;;;;;;;6.13;100.00;99429.69;5059736;28;19921;-90
2021/08/02 12:38:45;;;;;;;;;;;;;;;6.14;100.00;99431.38;5059173;28;19986;-89
2021/08/02 12:41:10;;;;;;;;;;;;;;;6.14;100.00;99427.00;5058938;28;19963;-90
2021/08/02 12:43:36;;;;;;;;;;;;;;;6.16;100.00;99419.06;5042885;28;19921;-91
2021/08/02 12:46:04;;;;;;;;;;;;;;;6.16;100.00;99419.06;5060739;28;19920;-89
2021/08/02 12:48:30;;;;;;;;;;;;;;;6.11;100.00;99418.31;5043589;28;19921;-90
2021/08/02 12:50:55;;;;;;;;;;;;;;;6.25;100.00;99407.38;5042461;28;19920;-92
2021/08/02 12:53:21;;;;;;;;;;;;;;;6.23;100.00;99409.22;5042607;28;19974;-91
2021/08/02 12:55:46;;;;;;;;;;;;;;;6.26;100.00;99403.84;5060281;28;19924;-90
2021/08/02 12:58:15;;;;;;;;;;;;;;;6.22;100.00;99408.34;5041958;28;20006;-90
2021/08/02 13:00:42;;;;;;;;;;;;;;;6.22;100.00;99410.09;5042077;28;20220;-90
2021/08/02 13:03:07;;;;;;;;;;;;;;;6.09;100.00;99414.88;5042965;28;20189;-91
2021/08/02 13:05:38;;;;;;;;;;;;;;;6.10;100.00;99403.47;5043003;28;19923;-91
2021/08/02 13:08:04;;;;;;;;;;;;;;;6.07;100.00;99414.94;5056877;28;19920;-90
2021/08/02 13:10:31;;;;;;;;;;;;;;;6.06;100.00;99417.59;5047706;28;19983;-90
2021/08/02 13:12:57;;;;;;;;;;;;;;;6.06;100.00;99396.56;5043207;28;19939;-90
2021/08/02 13:15:22;;;;;;;;;;;;;;;6.09;100.00;99399.09;5034735;28;19925;-90
2021/08/02 13:17:48;;;;;;;;;;;;;;;6.05;100.00;99405.34;5042357;28;20031;-90
2021/08/02 13:20:13;;;;;;;;;;;;;;;6.10;100.00;99393.78;5055795;28;19925;-90
2021/08/02 13:22:53;;;;;;;;;;;;;;;6.04;100.00;99403.66;5042956;28;19921;-91
2021/08/02 13:28:06;;;;;;;;;;;;;;;6.08;100.00;99389.47;5058480;28;19939;-92
2021/08/02 13:30:31;;;;;;;;;;;;;;;6.08;100.00;99394.75;5058460;28;20408;-91
2021/08/02 13:32:57;;;;;;;;;;;;;;;6.12;100.00;99391.13;5059489;28;20307;-91
2021/08/02 13:35:25;;;;;;;;;;;;;;;6.13;100.00;99387.59;5056380;28;19921;-90
2021/08/02 13:37:54;;;;;;;;;;;;;;;6.11;100.00;99381.50;5015628;28;19929;-91
2021/08/02 13:40:21;;;;;;;;;;;;;;;6.05;100.00;99382.56;5000003;28;20318;-90
2021/08/02 13:42:51;;;;;;;;;;;;;;;6.11;100.00;99373.59;5022670;28;19956;-90
2021/08/02 13:45:18;;;;;;;;;;;;;;;6.07;100.00;99382.53;5039326;28;19929;-90
2021/08/02 13:47:46;;;;;;;;;;;;;;;6.08;100.00;99379.84;5057748;28;20023;-90
2021/08/02 13:50:13;;;;;;;;;;;;;;;6.10;100.00;99379.78;5057339;28;19921;-89
2021/08/02 13:52:40;;;;;;;;;;;;;;;6.02;100.00;99374.75;5039681;28;19943;-90
2021/08/02 13:55:17;;;;;;;;;;;;;;;6.03;100.00;99375.63;5042967;28;19966;-90
2021/08/02 13:57:42;;;;;;;;;;;;;;;6.05;100.00;99368.53;5040990;28;19932;-91
2021/08/02 14:00:15;;;;;;;;;;;;;;;6.06;100.00;99372.91;5033409;28;22634;-90
2021/08/02 14:02:41;;;;;;;;;;;;;;;6.04;100.00;99378.19;5065154;28;19920;-90
2021/08/02 14:05:07;;;;;;;;;;;;;;;6.27;100.00;99390.66;5073753;28;19935;-89
2021/08/02 14:07:33;;;;;;;;;;;;;;;6.19;100.00;99395.31;5078819;28;19924;-90
2021/08/02 14:09:59;;;;;;;;;;;;;;;6.40;100.00;99395.50;5073650;28;19978;-90
2021/08/02 14:12:33;;;;;;;;;;;;;;;6.43;100.00;99400.66;5058173;28;19920;-90
2021/08/02 14:15:01;;;;;;;;;;;;;;;6.31;100.00;99404.56;5057378;28;19921;-91
2021/08/02 14:17:29;;;;;;;;;;;;;;;6.25;100.00;99402.97;5058191;28;19921;-91
2021/08/02 14:19:58;;;;;;;;;;;;;;;6.20;100.00;99389.09;5059141;28;19947;-92
2021/08/02 14:22:24;;;;;;;;;;;;;;;6.18;100.00;99390.94;5054219;28;19921;-90
2021/08/02 14:24:50;;;;;;;;;;;;;;;6.15;100.00;99386.63;5056897;28;19931;-91
2021/08/02 14:27:15;;;;;;;;;;;;;;;6.20;100.00;99393.53;5053927;28;20207;-90
2021/08/02 14:29:41;;;;;;;;;;;;;;;7.43;100.00;99384.09;5055829;28;19916;-89
2021/08/02 14:32:06;;;;;;;;;;;;;;;8.19;100.00;99385.63;5041397;28;19931;-88
2021/08/02 14:34:31;;;;;;;;;;;;;;;7.24;100.00;99383.91;5038718;28;19921;-88
2021/08/02 14:37:02;;;;;;;;;;;;;;;6.82;100.00;99390.59;5057869;28;19970;-88
2021/08/02 14:39:28;;;;;;;;;;;;;;;6.60;100.00;99389.59;5040254;28;19925;-90
2021/08/02 14:42:01;;;;;;;;;;;;;;;6.58;100.00;99384.38;5041444;28;19948;-88
2021/08/02 14:44:32;;;;;;;;;;;;;;;6.51;100.00;99381.09;5061873;28;19928;-88
2021/08/02 14:46:58;;;;;;;;;;;;;;;6.44;100.00;99381.34;5057104;28;19921;-88
2021/08/02 14:49:27;;;;;;;;;;;;;;;6.38;100.00;99382.41;5047132;28;19983;-88
2021/08/02 14:51:55;;;;;;;;;;;;;;;6.32;100.00;99372.94;5044288;28;19956;-90
2021/08/02 14:54:23;;;;;;;;;;;;;;;6.36;100.00;99371.91;5044102;28;19921;-90
2021/08/02 14:56:52;;;;;;;;;;;;;;;6.35;100.00;99372.84;5034337;28;19921;-91
2021/08/02 14:59:17;;;;;;;;;;;;;;;6.35;100.00;99375.47;5033791;28;19925;-89
2021/08/02 15:01:43;;;;;;;;;;;;;;;6.34;100.00;99376.38;5043508;28;19980;-88
2021/08/02 15:04:09;;;;;;;;;;;;;;;6.30;100.00;99384.41;5062923;28;19932;-90
2021/08/02 15:06:35;;;;;;;;;;;;;;;6.32;100.00;99366.84;5044565;28;20453;-88
2021/08/02 15:09:03;;;;;;;;;;;;;;;6.41;100.00;99370.91;5044207;28;20366;-87
2021/08/02 15:11:30;;;;;;;;;;;;;;;6.38;100.00;99371.00;5061038;28;19928;-88
2021/08/02 15:13:56;;;;;;;;;;;;;;;6.31;100.00;99371.22;5043366;28;19921;-89
2021/08/02 15:16:25;;;;;;;;;;;;;;;6.31;100.00;99373.84;5060692;28;20211;-88
2021/08/02 15:18:52;;;;;;;;;;;;;;;6.32;100.00;99367.69;5040707;28;19975;-89
2021/08/02 15:21:25;;;;;;;;;;;;;;;6.31;100.00;99365.94;5042220;28;19920;-87
2021/08/02 15:23:53;;;;;;;;;;;;;;;6.29;100.00;99373.03;5058045;28;19982;-88
2021/08/02 15:26:19;;;;;;;;;;;;;;;6.29;100.00;99373.03;5050656;28;19920;-88
2021/08/02 15:28:50;;;;;;;;;;;;;;;6.31;100.00;99380.88;5042316;28;20024;-88
2021/08/02 15:31:18;;;;;;;;;;;;;;;6.23;100.00;99383.75;5043654;28;20019;-89
2021/08/02 15:33:44;;;;;;;;;;;;;;;6.47;100.00;99382.09;5042317;28;19974;-90
2021/08/02 15:36:11;;;;;;;;;;;;;;;6.45;100.00;99394.47;5043729;28;19925;-88
2021/08/02 15:38:39;;;;;;;;;;;;;;;6.35;100.00;99396.53;5042058;28;20299;-89
2021/08/02 15:41:05;;;;;;;;;;;;;;;6.35;100.00;99398.28;5042704;28;20317;-88
2021/08/02 15:43:30;;;;;;;;;;;;;;;6.38;100.00;99398.19;5058844;28;19921;-88
2021/08/02 15:45:59;;;;;;;;;;;;;;;6.46;100.00;99400.56;5042340;28;20007;-88
2021/08/02 15:48:24;;;;;;;;;;;;;;;6.44;100.00;99403.25;5060512;28;19920;-88
2021/08/02 15:50:53;;;;;;;;;;;;;;;6.41;100.00;99407.75;5042909;28;19982;-88
2021/08/02 15:53:20;;;;;;;;;;;;;;;6.34;100.00;99400.06;5041446;28;19928;-90
2021/08/02 15:55:46;;;;;;;;;;;;;;;6.38;100.00;99403.44;5042024;28;19924;-90
2021/08/02 15:58:23;;;;;;;;;;;;;;;6.46;100.00;99411.09;5060250;28;19929;-89
2021/08/02 16:00:50;;;;;;;;;;;;;;;6.43;100.00;99422.59;5042686;28;20492;-89
2021/08/02 16:03:27;;;;;;;;;;;;;;;6.39;100.00;99420.13;5041770;28;19920;-89
2021/08/02 16:05:56;;;;;;;;;;;;;;;6.41;100.00;99410.41;5059786;28;19929;-88
2021/08/02 16:08:25;;;;;;;;;;;;;;;6.39;100.00;99402.56;5060863;28;19920;-90
2021/08/02 16:10:54;;;;;;;;;;;;;;;6.40;100.00;99406.03;5042397;28;20327;-89
2021/08/02 16:13:22;;;;;;;;;;;;;;;6.38;100.00;99399.97;5059215;28;19948;-90
2021/08/02 16:15:52;;;;;;;;;;;;;;;6.44;100.00;99402.41;5042127;28;19931;-90
2021/08/02 16:18:18;;;;;;;;;;;;;;;6.35;100.00;99399.16;5059767;28;20334;-89
2021/08/02 16:21:16;;;;;;;;;;;;;;;6.31;100.00;99392.25;5038018;28;20011;-88
2021/08/02 16:23:41;;;;;;;;;;;;;;;6.27;100.00;99401.19;5040548;28;19957;-89
2021/08/02 16:26:07;;;;;;;;;;;;;;;6.38;100.00;99399.97;5042767;28;19921;-88
2021/08/02 16:28:33;;;;;;;;;;;;;;;6.32;100.00;99409.78;5042236;28;20212;-88
2021/08/02 16:30:58;;;;;;;;;;;;;;;6.30;100.00;99408.97;5059263;28;19924;-88
2021/08/02 16:33:23;;;;;;;;;;;;;;;6.35;100.00;99411.44;5040478;28;19971;-88
2021/08/02 16:35:49;;;;;;;;;;;;;;;6.40;100.00;99422.69;5040913;28;19978;-89
2021/08/02 16:38:14;;;;;;;;;;;;;;;6.44;100.00;99421.69;5042221;28;20266;-88
2021/08/02 16:40:39;;;;;;;;;;;;;;;6.32;100.00;99417.69;5058466;28;20016;-89
2021/08/02 16:43:05;;;;;;;;;;;;;;;6.36;100.00;99423.69;5041393;28;19932;-88
2021/08/02 16:45:30;;;;;;;;;;;;;;;6.34;100.00;99421.13;5057695;28;19951;-88
2021/08/02 16:47:55;;;;;;;;;;;;;;;6.35;100.00;99417.59;5058854;28;19932;-88
2021/08/02 16:50:21;;;;;;;;;;;;;;;6.32;100.00;99420.31;5046572;28;20007;-88
2021/08/02 16:52:46;;;;;;;;;;;;;;;6.38;100.00;99421.03;5040799;28;19964;-89
2021/08/02 16:55:11;;;;;;;;;;;;;;;6.32;100.00;99415.03;5040349;28;19917;-89
2021/08/02 16:57:37;;;;;;;;;;;;;;;6.39;100.00;99425.38;5042410;28;19932;-90
2021/08/02 17:00:06;;;;;;;;;;;;;;;6.30;100.00;99422.13;5060958;28;19925;-89
2021/08/02 17:02:32;;;;;;;;;;;;;;;6.40;100.00;99416.56;5068594;28;19932;-88
2021/08/02 17:04:57;;;;;;;;;;;;;;;9.73;100.00;99409.13;5078423;28;19928;-89
2021/08/02 17:07:39;;;;;;;;;;;;;;;8.13;100.00;99417.53;5110028;27;20019;-90
2021/08/02 17:10:09;;;;;;;;;;;;;;;7.33;100.00;99414.34;5088485;28;19921;-88
2021/08/02 17:12:35;;;;;;;;;;;;;;;7.15;100.00;99422.00;5084530;28;19956;-89
2021/08/02 17:15:01;;;;;;;;;;;;;;;7.21;100.00;99420.91;5079611;28;19987;-89
2021/08/02 17:17:29;;;;;;;;;;;;;;;7.11;100.00;99422.16;5083973;28;20002;-88
2021/08/02 17:19:54;;;;;;;;;;;;;;;6.96;100.00;99415.63;5084545;28;20180;-90
2021/08/02 17:22:21;;;;;;;;;;;;;;;6.98;100.00;99425.19;5080458;28;20015;-90
2021/08/02 17:24:47;;;;;;;;;;;;;;;6.85;100.00;99422.13;5081043;28;19959;-87
2021/08/02 17:27:12;;;;;;;;;;;;;;;6.73;100.00;99423.41;5086122;28;19971;-88
2021/08/02 17:29:39;;;;;;;;;;;;;;;6.86;100.00;99425.59;5084331;28;19933;-88
2021/08/02 17:32:10;;;;;;;;;;;;;;;6.95;100.00;99425.28;5083641;28;19940;-88
2021/08/02 17:34:36;;;;;;;;;;;;;;;6.64;100.00;99426.31;5081257;28;19942;-88
2021/08/02 17:37:01;;;;;;;;;;;;;;;6.70;100.00;99426.13;5087327;28;20347;-88
2021/08/02 17:39:27;;;;;;;;;;;;;;;6.69;100.00;99424.38;5079110;28;19920;-87
2021/08/02 17:41:52;;;;;;;;;;;;;;;6.63;100.00;99423.72;5079919;28;20413;-87
2021/08/02 17:44:18;;;;;;;;;;;;;;;6.74;100.00;99426.88;5078269;28;20066;-88
2021/08/02 17:46:43;;;;;;;;;;;;;;;6.72;100.00;99426.94;5082209;28;19920;-88
2021/08/02 17:49:10;;;;;;;;;;;;;;;6.59;100.00;99433.50;5085384;28;19971;-88
2021/08/02 17:51:37;;;;;;;;;;;;;;;6.56;100.00;99433.59;5085585;28;19920;-90
2021/08/02 17:54:05;;;;;;;;;;;;;;;6.57;100.00;99430.03;5078720;28;20338;-88
2021/08/02 17:56:30;;;;;;;;;;;;;;;6.52;100.00;99434.59;5083144;28;20221;-88
2021/08/02 17:58:56;;;;;;;;;;;;;;;6.51;100.00;99430.22;5079126;28;19934;-90
2021/08/02 18:01:22;;;;;;;;;;;;;;;6.60;100.00;99437.84;5084557;28;20330;-89
2021/08/02 18:03:54;;;;;;;;;;;;;;;6.55;100.00;99443.25;5090324;28;19951;-88
2021/08/02 18:06:26;;;;;;;;;;;;;;;6.55;100.00;99445.88;5091489;28;19920;-88
2021/08/02 18:08:51;;;;;;;;;;;;;;;6.46;100.00;99448.84;5091246;28;19932;-88
2021/08/02 18:11:22;;;;;;;;;;;;;;;6.47;100.00;99449.69;5083232;28;19986;-88
2021/08/02 18:13:48;;;;;;;;;;;;;;;6.45;100.00;99460.25;5090468;28;20261;-90
2021/08/02 18:16:14;;;;;;;;;;;;;;;6.38;100.00;99460.50;5091712;28;19974;-88
2021/08/02 18:18:40;;;;;;;;;;;;;;;6.39;100.00;99452.56;5062726;28;20306;-89
2021/08/02 18:21:06;;;;;;;;;;;;;;;6.58;100.00;99460.75;5080133;28;19963;-88
2021/08/02 18:23:34;;;;;;;;;;;;;;;6.40;100.00;99458.66;5057124;28;19939;-88
2021/08/02 18:26:05;;;;;;;;;;;;;;;6.52;100.00;99463.56;5061674;28;19977;-89
2021/08/02 18:28:33;;;;;;;;;;;;;;;6.49;100.00;99458.38;5061059;28;19951;-89
2021/08/02 18:31:00;;;;;;;;;;;;;;;6.29;100.00;99461.66;5078708;28;20215;-91
2021/08/02 18:33:26;;;;;;;;;;;;;;;6.46;100.00;99456.72;5057148;28;21669;-88
2021/08/02 18:35:51;;;;;;;;;;;;;;;6.35;100.00;99462.31;5079299;28;20015;-88
2021/08/02 18:38:16;;;;;;;;;;;;;;;6.40;100.00;99459.56;5078736;28;20181;-91
2021/08/02 18:40:45;;;;;;;;;;;;;;;6.53;100.00;99460.03;5079841;28;19974;-90
2021/08/02 18:43:12;;;;;;;;;;;;;;;6.47;100.00;99465.47;5058374;28;19920;-91
2021/08/02 18:45:39;;;;;;;;;;;;;;;6.44;100.00;99457.69;5054060;28;19921;-91
2021/08/02 18:48:07;;;;;;;;;;;;;;;6.25;100.00;99465.28;5062586;28;19936;-90
2021/08/02 18:50:35;;;;;;;;;;;;;;;6.22;100.00;99466.22;5070831;28;19928;-90
2021/08/02 18:53:01;;;;;;;;;;;;;;;6.32;100.00;99470.31;5076274;28;19931;-91
2021/08/02 18:55:29;;;;;;;;;;;;;;;6.34;100.00;99473.75;5062693;28;19920;-90
2021/08/02 18:57:54;;;;;;;;;;;;;;;6.36;100.00;99485.06;5074056;28;19932;-90
2021/08/02 19:00:21;;;;;;;;;;;;;;;6.41;100.00;99478.81;5077539;28;19920;-88
2021/08/02 19:02:54;;;;;;;;;;;;;;;6.27;100.00;99481.88;5060062;28;20339;-88
2021/08/02 19:05:19;;;;;;;;;;;;;;;6.26;100.00;99496.81;5067327;28;20224;-89
2021/08/02 19:07:45;;;;;;;;;;;;;;;6.22;100.00;99500.41;5069815;28;20216;-90
2021/08/02 19:10:10;;;;;;;;;;;;;;;6.39;100.00;99485.91;5069169;28;19979;-89
2021/08/02 19:12:47;;;;;;;;;;;;;;;6.29;100.00;99487.97;5065407;28;19943;-89
2021/08/02 19:15:12;;;;;;;;;;;;;;;6.33;100.00;99485.19;5067878;28;19931;-90
2021/08/02 19:17:43;;;;;;;;;;;;;;;6.30;100.00;99495.81;5069299;28;19979;-89
2021/08/02 19:20:17;;;;;;;;;;;;;;;6.41;100.00;99490.19;5073043;28;20358;-88
2021/08/02 19:22:45;;;;;;;;;;;;;;;6.37;100.00;99491.22;5063484;28;19924;-89
2021/08/02 19:25:11;;;;;;;;;;;;;;;6.39;100.00;99499.06;5064437;28;20011;-88